Ferrol, Spain
Current Conditions -  °F | °C
As of 6:30 PM on Thursday 23 Oct 2014 (Local Time) from LECO Reporting Station
Few Clouds Few Clouds  
Wind Chill: 77°   Ceiling: Unl
Heat Index: 79°   Visibility: 6mi
Dew Point: 57°   Wind: 1mph
Humidity: 50%   Direction: NA
Pressure: 30.18"   Gusts: NA
Location:  43.48°N, 8.24°W
Report Text: LECO 231630Z VRB01KT 9999 FEW040 25/14 Q1022 NOSIG
Loading
Personal Weather Stations






























Interactive Weather Map
Tropical Storm Tracking
New forecast layout! Learn more

10-Day Weather Forecast

Advertisements
Track Severe Weather on mobile